Time;durP1;ratioP1;P1;durP2;ratioP2;P2;SDS_P1;SDS_P2;PMS_P1;PMS_P2;Temp;Humidity;BMP_temperature;BMP_pressure;BME280_temperature;BME280_humidity;BME280_pressure;Samples;Min_cycle;Max_cycle;Signal;HPM_P1;HPM_P2
2022/01/09 00:01:40;;;;;;;30.80;4.10;;;;;;;;;;4974657;28;20088;-75
2022/01/09 00:04:06;;;;;;;18.45;3.05;;;;;;;;;;4966020;28;20571;-74
2022/01/09 00:06:31;;;;;;;17.75;3.50;;;;;;;;;;4965532;28;20069;-75
2022/01/09 00:08:56;;;;;;;13.95;2.97;;;;;;;;;;4980465;28;20058;-75
2022/01/09 00:11:26;;;;;;;17.38;3.03;;;;;;;;;;4976776;28;20073;-74
2022/01/09 00:13:53;;;;;;;6.93;1.70;;;;;;;;;;4974454;28;20925;-74
2022/01/09 00:16:20;;;;;;;13.35;2.63;;;;;;;;;;4986614;28;20503;-74
2022/01/09 00:18:45;;;;;;;12.75;2.33;;;;;;;;;;4971469;28;20052;-74
2022/01/09 00:21:11;;;;;;;11.60;1.90;;;;;;;;;;4978018;28;20474;-74
2022/01/09 00:23:36;;;;;;;11.82;1.80;;;;;;;;;;4977902;28;20519;-75
2022/01/09 00:26:02;;;;;;;9.23;1.50;;;;;;;;;;4965226;28;20532;-75
2022/01/09 00:28:27;;;;;;;10.27;2.13;;;;;;;;;;4975550;28;20093;-75
2022/01/09 00:30:52;;;;;;;12.38;2.55;;;;;;;;;;4980871;28;20635;-75
2022/01/09 00:33:21;;;;;;;12.40;2.80;;;;;;;;;;4972962;28;20108;-75
2022/01/09 00:35:46;;;;;;;18.13;2.95;;;;;;;;;;4976554;28;20164;-73
2022/01/09 00:38:12;;;;;;;16.63;4.30;;;;;;;;;;4974608;28;20044;-74
2022/01/09 00:40:37;;;;;;;14.07;2.25;;;;;;;;;;4974206;28;20100;-74
2022/01/09 00:43:04;;;;;;;20.52;3.08;;;;;;;;;;4973422;28;20035;-73
2022/01/09 00:45:29;;;;;;;17.30;3.08;;;;;;;;;;4981145;28;20708;-74
2022/01/09 00:47:56;;;;;;;14.80;2.63;;;;;;;;;;4973660;28;20049;-75
2022/01/09 00:50:21;;;;;;;18.65;2.78;;;;;;;;;;4976817;28;20066;-74
2022/01/09 00:52:47;;;;;;;15.15;3.42;;;;;;;;;;4974861;28;20080;-74
2022/01/09 00:55:12;;;;;;;17.25;3.78;;;;;;;;;;4976496;28;20031;-74
2022/01/09 00:57:38;;;;;;;18.75;3.55;;;;;;;;;;4975879;28;20030;-74
2022/01/09 01:00:05;;;;;;;18.50;2.88;;;;;;;;;;4977821;28;20073;-74
2022/01/09 01:02:30;;;;;;;18.98;3.22;;;;;;;;;;4969323;28;20188;-74
2022/01/09 01:04:56;;;;;;;17.40;3.80;;;;;;;;;;4973385;28;20137;-75
2022/01/09 01:07:23;;;;;;;24.13;3.65;;;;;;;;;;4964870;28;20690;-75
2022/01/09 01:09:48;;;;;;;17.88;2.90;;;;;;;;;;4980530;28;20028;-74
2022/01/09 01:12:14;;;;;;;19.35;2.67;;;;;;;;;;4970976;28;20053;-74
2022/01/09 01:14:39;;;;;;;11.35;2.08;;;;;;;;;;4975255;28;20058;-73
2022/01/09 01:17:05;;;;;;;18.15;3.13;;;;;;;;;;4968686;28;20074;-74
2022/01/09 01:19:30;;;;;;;17.17;2.97;;;;;;;;;;4978242;28;20042;-75
2022/01/09 01:21:58;;;;;;;16.88;2.95;;;;;;;;;;4969677;28;20038;-74
2022/01/09 01:24:23;;;;;;;14.77;2.40;;;;;;;;;;4973374;28;20526;-74
2022/01/09 01:26:49;;;;;;;13.70;2.38;;;;;;;;;;5032808;28;20044;-75
2022/01/09 01:29:15;;;;;;;14.75;2.38;;;;;;;;;;4979252;28;20114;-74
2022/01/09 01:31:40;;;;;;;8.68;1.60;;;;;;;;;;4969590;28;20823;-74
2022/01/09 01:34:05;;;;;;;20.27;3.17;;;;;;;;;;4972498;28;20035;-74
2022/01/09 01:36:30;;;;;;;9.23;2.97;;;;;;;;;;4978469;28;20030;-74
2022/01/09 01:38:56;;;;;;;10.05;1.73;;;;;;;;;;4978648;28;20047;-74
2022/01/09 01:41:21;;;;;;;41.03;4.70;;;;;;;;;;4973875;28;20340;-74
2022/01/09 01:43:47;;;;;;;8.75;2.05;;;;;;;;;;4974302;28;20511;-73
2022/01/09 01:46:12;;;;;;;11.02;2.38;;;;;;;;;;4980266;28;20068;-74
2022/01/09 01:48:38;;;;;;;13.82;3.10;;;;;;;;;;4972760;28;20019;-74
2022/01/09 01:51:04;;;;;;;15.23;3.25;;;;;;;;;;4978248;28;20415;-74
2022/01/09 01:53:30;;;;;;;15.27;3.42;;;;;;;;;;5017494;28;20154;-75
2022/01/09 01:55:56;;;;;;;10.95;3.17;;;;;;;;;;4965947;28;20039;-75
2022/01/09 01:58:23;;;;;;;13.70;4.35;;;;;;;;;;4963744;28;20030;-75
2022/01/09 02:00:49;;;;;;;13.27;2.90;;;;;;;;;;4979009;28;20041;-75
2022/01/09 02:03:14;;;;;;;14.68;3.97;;;;;;;;;;4983486;28;20042;-74
2022/01/09 02:05:44;;;;;;;20.08;3.75;;;;;;;;;;4973484;28;20119;-74
2022/01/09 02:08:10;;;;;;;11.77;2.85;;;;;;;;;;4981269;28;20133;-75
2022/01/09 02:10:40;;;;;;;15.57;3.30;;;;;;;;;;4981723;28;20115;-74
2022/01/09 02:13:05;;;;;;;13.25;3.10;;;;;;;;;;4981248;28;20030;-73
2022/01/09 02:15:39;;;;;;;11.00;2.88;;;;;;;;;;4975036;28;20095;-74
2022/01/09 02:18:10;;;;;;;15.27;2.88;;;;;;;;;;4984990;28;20799;-74
2022/01/09 02:20:37;;;;;;;11.55;2.10;;;;;;;;;;4974253;28;20054;-75
2022/01/09 02:23:03;;;;;;;10.32;3.08;;;;;;;;;;4973656;28;20519;-75
2022/01/09 02:25:29;;;;;;;12.05;2.60;;;;;;;;;;4980831;28;20482;-75
2022/01/09 02:27:54;;;;;;;10.85;2.00;;;;;;;;;;4979833;28;20030;-75
2022/01/09 02:30:20;;;;;;;18.58;2.75;;;;;;;;;;4975505;28;20053;-74
2022/01/09 02:32:46;;;;;;;12.77;2.20;;;;;;;;;;4978474;28;20053;-74
2022/01/09 02:35:11;;;;;;;9.57;2.40;;;;;;;;;;4980180;28;20129;-75
2022/01/09 02:37:36;;;;;;;9.82;2.40;;;;;;;;;;4981124;28;20047;-75
2022/01/09 02:40:04;;;;;;;11.13;2.03;;;;;;;;;;4979286;28;20039;-74
2022/01/09 02:42:30;;;;;;;10.13;2.50;;;;;;;;;;4967609;28;20035;-74
2022/01/09 02:44:56;;;;;;;15.75;3.35;;;;;;;;;;4973630;28;20117;-73
2022/01/09 02:47:23;;;;;;;5.15;1.88;;;;;;;;;;4978206;28;20047;-74
2022/01/09 02:49:51;;;;;;;12.40;2.92;;;;;;;;;;4975294;28;20504;-74
2022/01/09 02:55:10;;;;;;;12.35;2.38;;;;;;;;;;4969093;28;20042;-74
2022/01/09 02:57:37;;;;;;;8.93;2.00;;;;;;;;;;4967562;28;20043;-74
2022/01/09 03:00:10;;;;;;;9.80;2.53;;;;;;;;;;4967520;28;20633;-75
2022/01/09 03:02:36;;;;;;;16.92;2.72;;;;;;;;;;4979923;28;20068;-74
2022/01/09 03:05:01;;;;;;;13.02;2.22;;;;;;;;;;4981513;28;20043;-74
2022/01/09 03:07:26;;;;;;;8.27;1.98;;;;;;;;;;4981709;28;20043;-74
2022/01/09 03:09:52;;;;;;;10.07;1.83;;;;;;;;;;4968252;28;23501;-74
2022/01/09 03:12:17;;;;;;;8.27;1.70;;;;;;;;;;4981301;28;20130;-73
2022/01/09 03:14:42;;;;;;;18.88;3.10;;;;;;;;;;4981501;28;20049;-74
2022/01/09 03:17:08;;;;;;;14.27;2.20;;;;;;;;;;4972960;28;20039;-74
2022/01/09 03:19:33;;;;;;;10.25;2.75;;;;;;;;;;4980473;28;20049;-75
2022/01/09 03:21:59;;;;;;;16.20;2.25;;;;;;;;;;4974371;28;20045;-74
2022/01/09 03:24:24;;;;;;;12.13;2.05;;;;;;;;;;4974431;28;20046;-74
2022/01/09 03:26:49;;;;;;;16.30;2.30;;;;;;;;;;4979749;28;20133;-74
2022/01/09 03:29:14;;;;;;;4.80;1.63;;;;;;;;;;4969883;28;20046;-74
2022/01/09 03:31:41;;;;;;;8.98;1.77;;;;;;;;;;4971333;28;20420;-74
2022/01/09 03:34:06;;;;;;;12.52;2.85;;;;;;;;;;4975730;28;20023;-74
2022/01/09 03:36:32;;;;;;;7.75;1.90;;;;;;;;;;4981888;28;21024;-74
2022/01/09 03:38:57;;;;;;;13.68;2.53;;;;;;;;;;4978241;28;20474;-74
2022/01/09 03:41:22;;;;;;;11.15;2.20;;;;;;;;;;4976198;28;20129;-74
2022/01/09 03:43:48;;;;;;;8.10;1.92;;;;;;;;;;4978516;28;20039;-74
2022/01/09 03:46:13;;;;;;;12.77;2.10;;;;;;;;;;4974115;28;20045;-74
2022/01/09 03:48:38;;;;;;;9.30;2.30;;;;;;;;;;4990292;28;20046;-75
2022/01/09 03:51:04;;;;;;;12.75;1.80;;;;;;;;;;4982641;28;20117;-74
2022/01/09 03:53:31;;;;;;;7.78;1.90;;;;;;;;;;4982408;28;20046;-74
2022/01/09 03:55:57;;;;;;;13.00;2.38;;;;;;;;;;4981418;28;20124;-75
2022/01/09 03:58:23;;;;;;;9.63;1.88;;;;;;;;;;4983241;28;20036;-73
2022/01/09 04:00:48;;;;;;;6.75;1.65;;;;;;;;;;4978003;28;20037;-74
2022/01/09 04:03:14;;;;;;;10.98;2.08;;;;;;;;;;4975919;28;20050;-73
2022/01/09 04:05:39;;;;;;;12.75;2.42;;;;;;;;;;4977473;28;20096;-73
2022/01/09 04:08:04;;;;;;;11.18;2.40;;;;;;;;;;4975991;28;20031;-74
2022/01/09 04:10:32;;;;;;;8.52;2.05;;;;;;;;;;4966846;28;20041;-75
2022/01/09 04:13:00;;;;;;;10.25;1.48;;;;;;;;;;4974392;28;20515;-75
2022/01/09 04:15:27;;;;;;;10.75;1.85;;;;;;;;;;4978434;28;20039;-74
2022/01/09 04:17:55;;;;;;;9.98;2.10;;;;;;;;;;4975370;28;20047;-74
2022/01/09 04:20:26;;;;;;;10.38;2.00;;;;;;;;;;4986409;28;20519;-74
2022/01/09 04:22:52;;;;;;;14.60;2.08;;;;;;;;;;4973528;28;20046;-75
2022/01/09 04:25:18;;;;;;;10.77;1.83;;;;;;;;;;5064058;28;20041;-74
2022/01/09 04:27:45;;;;;;;7.15;1.90;;;;;;;;;;4977631;28;20046;-74
2022/01/09 04:30:11;;;;;;;7.78;1.98;;;;;;;;;;4967973;28;20034;-74
2022/01/09 04:32:37;;;;;;;13.68;2.70;;;;;;;;;;4974847;28;20049;-74
2022/01/09 04:35:03;;;;;;;10.80;2.03;;;;;;;;;;4973010;28;20034;-74
2022/01/09 04:37:29;;;;;;;12.63;2.40;;;;;;;;;;4981312;28;20050;-75
2022/01/09 04:39:55;;;;;;;17.10;3.15;;;;;;;;;;4975902;28;20039;-74
2022/01/09 04:42:26;;;;;;;13.90;1.92;;;;;;;;;;4980265;28;20270;-73
2022/01/09 04:44:51;;;;;;;14.80;2.20;;;;;;;;;;4975893;28;20051;-74
2022/01/09 04:47:17;;;;;;;14.80;2.38;;;;;;;;;;4982013;28;20074;-74
2022/01/09 04:49:45;;;;;;;17.40;2.40;;;;;;;;;;4972303;28;20126;-75
2022/01/09 04:52:18;;;;;;;9.90;1.98;;;;;;;;;;4978914;28;20108;-74
2022/01/09 04:54:43;;;;;;;13.02;1.80;;;;;;;;;;5052019;28;20042;-75
2022/01/09 04:57:09;;;;;;;10.60;1.88;;;;;;;;;;4966037;28;20043;-74
2022/01/09 04:59:34;;;;;;;14.73;3.05;;;;;;;;;;4976289;28;20051;-74
2022/01/09 05:01:59;;;;;;;8.43;2.13;;;;;;;;;;4977574;28;20074;-73
2022/01/09 05:04:25;;;;;;;7.63;1.73;;;;;;;;;;4974579;28;20469;-74
2022/01/09 05:06:50;;;;;;;13.38;2.78;;;;;;;;;;4975761;28;20041;-74
2022/01/09 05:09:16;;;;;;;9.57;2.08;;;;;;;;;;4978209;28;20118;-74
2022/01/09 05:11:41;;;;;;;5.53;1.75;;;;;;;;;;4966560;28;20043;-76
2022/01/09 05:14:06;;;;;;;11.43;1.80;;;;;;;;;;4975656;28;20466;-74
2022/01/09 05:16:32;;;;;;;10.88;2.08;;;;;;;;;;4976261;28;20499;-74
2022/01/09 05:19:16;;;;;;;7.43;1.88;;;;;;;;;;4971798;28;20035;-74
2022/01/09 05:21:41;;;;;;;6.40;1.40;;;;;;;;;;4964755;28;20055;-74
2022/01/09 05:24:06;;;;;;;12.35;1.77;;;;;;;;;;4965225;28;20081;-74
2022/01/09 05:26:32;;;;;;;12.00;2.05;;;;;;;;;;4978934;28;20034;-75
2022/01/09 05:28:57;;;;;;;11.82;1.80;;;;;;;;;;4970422;28;20054;-75
2022/01/09 05:31:22;;;;;;;7.03;1.88;;;;;;;;;;4985067;28;20554;-75
2022/01/09 05:33:47;;;;;;;8.85;2.47;;;;;;;;;;4977322;28;20034;-74
2022/01/09 05:36:13;;;;;;;11.20;2.28;;;;;;;;;;4966685;28;20043;-74
2022/01/09 05:38:38;;;;;;;10.23;2.70;;;;;;;;;;4971152;28;20050;-74
2022/01/09 05:41:03;;;;;;;11.88;2.17;;;;;;;;;;4968729;28;20603;-74
2022/01/09 05:43:29;;;;;;;10.35;1.77;;;;;;;;;;4984893;28;20083;-74
2022/01/09 05:45:55;;;;;;;11.77;2.38;;;;;;;;;;4984394;28;20039;-74
2022/01/09 05:48:20;;;;;;;7.68;1.60;;;;;;;;;;4971422;28;20038;-74
2022/01/09 05:50:45;;;;;;;9.00;2.45;;;;;;;;;;4983819;28;20523;-74
2022/01/09 05:53:11;;;;;;;6.05;1.90;;;;;;;;;;4977835;28;20075;-74
2022/01/09 05:55:36;;;;;;;11.38;2.20;;;;;;;;;;4974616;28;20129;-74
2022/01/09 05:58:02;;;;;;;11.82;1.88;;;;;;;;;;4978103;28;20049;-74
2022/01/09 06:00:27;;;;;;;9.85;1.90;;;;;;;;;;4997273;28;20052;-74
2022/01/09 06:02:52;;;;;;;8.80;1.77;;;;;;;;;;4980724;28;20104;-74
2022/01/09 06:05:18;;;;;;;8.40;1.98;;;;;;;;;;4976734;28;20042;-74
2022/01/09 06:07:43;;;;;;;7.55;2.08;;;;;;;;;;5004251;28;20063;-74
2022/01/09 06:10:10;;;;;;;8.43;1.67;;;;;;;;;;4990279;28;20053;-74
2022/01/09 06:12:36;;;;;;;13.93;2.00;;;;;;;;;;4990758;28;20018;-74
2022/01/09 06:15:02;;;;;;;9.52;1.52;;;;;;;;;;4978700;28;20469;-75
2022/01/09 06:17:27;;;;;;;5.65;1.50;;;;;;;;;;4983820;28;20049;-74
2022/01/09 06:19:53;;;;;;;21.63;2.55;;;;;;;;;;4979965;28;20050;-74
2022/01/09 06:22:18;;;;;;;10.00;2.20;;;;;;;;;;4975701;28;20026;-74
2022/01/09 06:24:50;;;;;;;8.18;1.77;;;;;;;;;;4973634;28;20026;-74
2022/01/09 06:27:17;;;;;;;14.20;2.05;;;;;;;;;;4987631;28;20038;-74
2022/01/09 06:29:43;;;;;;;10.32;1.95;;;;;;;;;;4974041;28;20046;-75
2022/01/09 06:32:08;;;;;;;6.95;1.45;;;;;;;;;;4993023;28;20068;-74
2022/01/09 06:34:34;;;;;;;11.00;1.95;;;;;;;;;;4968683;28;20031;-74
2022/01/09 06:36:59;;;;;;;11.70;2.00;;;;;;;;;;4969255;28;20051;-74
2022/01/09 06:39:24;;;;;;;9.25;1.52;;;;;;;;;;4973190;28;20508;-74
2022/01/09 06:41:50;;;;;;;14.85;1.75;;;;;;;;;;4976452;28;20046;-74
2022/01/09 06:44:15;;;;;;;8.15;1.45;;;;;;;;;;4975397;28;20035;-74
2022/01/09 06:46:41;;;;;;;7.75;2.03;;;;;;;;;;4967930;28;20135;-74
2022/01/09 06:49:07;;;;;;;9.20;2.00;;;;;;;;;;4967277;28;20035;-73
2022/01/09 06:51:32;;;;;;;8.80;2.33;;;;;;;;;;4975735;28;20033;-75
2022/01/09 06:53:57;;;;;;;10.38;1.77;;;;;;;;;;4980127;28;20046;-74
2022/01/09 06:56:23;;;;;;;12.35;1.80;;;;;;;;;;4971301;28;20078;-74
2022/01/09 06:58:48;;;;;;;12.85;2.60;;;;;;;;;;4967366;28;20061;-74
2022/01/09 07:01:13;;;;;;;10.77;2.20;;;;;;;;;;5011646;28;20032;-74
2022/01/09 07:03:39;;;;;;;9.10;2.38;;;;;;;;;;4969715;28;20039;-75
2022/01/09 07:06:04;;;;;;;10.43;1.70;;;;;;;;;;4979569;28;20050;-74
2022/01/09 07:08:33;;;;;;;6.30;1.65;;;;;;;;;;4972891;28;20046;-74
2022/01/09 07:10:59;;;;;;;12.90;1.75;;;;;;;;;;4965731;28;20093;-74
2022/01/09 07:13:24;;;;;;;10.48;1.83;;;;;;;;;;4972308;28;20072;-74
2022/01/09 07:15:50;;;;;;;11.55;2.15;;;;;;;;;;4971645;28;20453;-74
2022/01/09 07:18:15;;;;;;;11.38;2.17;;;;;;;;;;4981034;28;20097;-74
2022/01/09 07:20:41;;;;;;;13.15;2.47;;;;;;;;;;4974452;28;20547;-74
2022/01/09 07:23:07;;;;;;;11.93;1.88;;;;;;;;;;4990544;28;20051;-74
2022/01/09 07:25:33;;;;;;;10.07;1.38;;;;;;;;;;4985312;28;20034;-74
2022/01/09 07:27:59;;;;;;;11.50;2.30;;;;;;;;;;4967875;28;20026;-74
2022/01/09 07:30:27;;;;;;;14.85;2.60;;;;;;;;;;4967167;28;20055;-74
2022/01/09 07:32:52;;;;;;;9.50;1.90;;;;;;;;;;4979218;28;20110;-74
2022/01/09 07:35:18;;;;;;;9.23;1.65;;;;;;;;;;4975634;28;20130;-74
2022/01/09 07:37:43;;;;;;;13.30;2.10;;;;;;;;;;4967387;28;20382;-75
2022/01/09 07:40:09;;;;;;;13.88;1.90;;;;;;;;;;4978789;28;20122;-73
2022/01/09 07:42:34;;;;;;;10.82;2.08;;;;;;;;;;4975771;28;20031;-74
2022/01/09 07:45:00;;;;;;;12.80;2.10;;;;;;;;;;4979929;28;20047;-74
2022/01/09 07:47:26;;;;;;;9.82;1.70;;;;;;;;;;4973986;28;20112;-74
2022/01/09 07:49:52;;;;;;;10.82;1.90;;;;;;;;;;4979476;28;20043;-75
2022/01/09 07:52:17;;;;;;;9.60;2.20;;;;;;;;;;4972274;28;20034;-73
2022/01/09 07:54:42;;;;;;;18.80;3.22;;;;;;;;;;4979734;28;20574;-74
2022/01/09 07:57:08;;;;;;;8.18;1.63;;;;;;;;;;4964713;28;20667;-74
2022/01/09 07:59:33;;;;;;;10.35;1.92;;;;;;;;;;4965577;28;20404;-74
2022/01/09 08:01:58;;;;;;;13.98;2.00;;;;;;;;;;4974749;28;20043;-75
2022/01/09 08:04:24;;;;;;;10.30;2.10;;;;;;;;;;4973951;28;25221;-74
2022/01/09 08:06:49;;;;;;;11.13;1.63;;;;;;;;;;4971817;28;20041;-74
2022/01/09 08:09:14;;;;;;;11.38;2.10;;;;;;;;;;5000411;28;20039;-74
2022/01/09 08:11:40;;;;;;;9.48;1.88;;;;;;;;;;4963497;28;20038;-74
2022/01/09 08:14:05;;;;;;;12.10;1.95;;;;;;;;;;4974546;28;20039;-75
2022/01/09 08:16:31;;;;;;;12.00;2.08;;;;;;;;;;4972141;28;20676;-74
2022/01/09 08:18:56;;;;;;;12.07;2.15;;;;;;;;;;4976339;28;20034;-74
2022/01/09 08:21:21;;;;;;;13.32;2.75;;;;;;;;;;4981207;28;20042;-74
2022/01/09 08:23:47;;;;;;;9.13;2.10;;;;;;;;;;4974202;28;20043;-74
2022/01/09 08:26:14;;;;;;;11.70;3.15;;;;;;;;;;4966405;28;20041;-74
2022/01/09 08:28:44;;;;;;;15.65;3.10;;;;;;;;;;4969161;28;20119;-74
2022/01/09 08:31:09;;;;;;;8.25;2.05;;;;;;;;;;4974604;28;20057;-74
2022/01/09 08:33:34;;;;;;;10.40;1.83;;;;;;;;;;4979527;28;20031;-73
2022/01/09 08:36:00;;;;;;;10.02;2.30;;;;;;;;;;4975916;28;20093;-74
2022/01/09 08:38:25;;;;;;;6.88;2.88;;;;;;;;;;4974475;28;20507;-72
2022/01/09 08:40:50;;;;;;;12.23;1.98;;;;;;;;;;4971387;28;20543;-72
2022/01/09 08:43:16;;;;;;;25.17;2.88;;;;;;;;;;4974609;28;20042;-75
2022/01/09 08:45:41;;;;;;;12.15;2.22;;;;;;;;;;4970465;28;20600;-74
2022/01/09 08:48:07;;;;;;;16.83;2.70;;;;;;;;;;4981536;28;20545;-74
2022/01/09 08:50:32;;;;;;;9.18;1.67;;;;;;;;;;4966912;28;20043;-74
2022/01/09 08:52:57;;;;;;;13.23;2.13;;;;;;;;;;4979578;28;20046;-74
2022/01/09 08:55:23;;;;;;;14.45;2.53;;;;;;;;;;4976891;28;20087;-74
2022/01/09 08:57:50;;;;;;;6.97;1.83;;;;;;;;;;4975679;28;20030;-71
2022/01/09 09:00:16;;;;;;;14.98;3.17;;;;;;;;;;4966852;28;20050;-71
2022/01/09 09:02:41;;;;;;;12.68;3.13;;;;;;;;;;4969802;28;20035;-70
2022/01/09 09:05:07;;;;;;;7.95;2.08;;;;;;;;;;4966732;28;20572;-70
2022/01/09 09:07:32;;;;;;;11.60;2.20;;;;;;;;;;4965366;28;20516;-75
2022/01/09 09:10:03;;;;;;;13.23;3.25;;;;;;;;;;4972223;28;20034;-73
2022/01/09 09:12:29;;;;;;;10.20;2.50;;;;;;;;;;4985378;28;20035;-73
2022/01/09 09:14:55;;;;;;;10.27;1.67;;;;;;;;;;4973399;28;20050;-72
2022/01/09 09:17:20;;;;;;;11.82;2.63;;;;;;;;;;4974877;28;20035;-74
2022/01/09 09:19:46;;;;;;;13.18;2.03;;;;;;;;;;4979273;28;20043;-73
2022/01/09 09:22:11;;;;;;;9.95;2.50;;;;;;;;;;4967377;28;20018;-74
2022/01/09 09:24:37;;;;;;;13.43;3.05;;;;;;;;;;4978978;28;20026;-74
2022/01/09 09:27:03;;;;;;;11.05;2.88;;;;;;;;;;4981498;28;20046;-74
2022/01/09 09:29:29;;;;;;;17.25;2.78;;;;;;;;;;4975262;28;20054;-73
2022/01/09 09:31:54;;;;;;;10.57;2.47;;;;;;;;;;4976613;28;20933;-75
2022/01/09 09:34:20;;;;;;;13.60;2.90;;;;;;;;;;5011191;28;20507;-75
2022/01/09 09:36:45;;;;;;;7.70;2.80;;;;;;;;;;4967516;28;20051;-77
2022/01/09 09:39:12;;;;;;;13.02;2.28;;;;;;;;;;4980159;28;20038;-75
2022/01/09 09:41:39;;;;;;;16.48;2.95;;;;;;;;;;4969401;28;20052;-75
2022/01/09 09:44:07;;;;;;;21.55;3.10;;;;;;;;;;4975647;28;20058;-75
2022/01/09 09:46:33;;;;;;;7.43;2.15;;;;;;;;;;4980758;28;20046;-73
2022/01/09 09:48:58;;;;;;;14.10;2.67;;;;;;;;;;4974928;28;20028;-74
2022/01/09 09:51:24;;;;;;;13.75;2.80;;;;;;;;;;4997792;28;20048;-74
2022/01/09 09:53:50;;;;;;;13.40;2.47;;;;;;;;;;4980536;28;20042;-73
2022/01/09 09:56:16;;;;;;;15.50;3.35;;;;;;;;;;4970871;28;20070;-74
2022/01/09 09:58:41;;;;;;;15.25;2.70;;;;;;;;;;4969030;28;20046;-74
2022/01/09 10:01:08;;;;;;;16.35;2.75;;;;;;;;;;4980869;28;20062;-74
2022/01/09 10:03:33;;;;;;;7.13;2.10;;;;;;;;;;4972245;28;20144;-74
2022/01/09 10:06:00;;;;;;;8.48;2.42;;;;;;;;;;4968315;28;20129;-74
2022/01/09 10:08:37;;;;;;;20.98;3.13;;;;;;;;;;4971930;28;20066;-74
2022/01/09 10:11:16;;;;;;;17.17;2.58;;;;;;;;;;4980290;28;20053;-74
2022/01/09 10:13:42;;;;;;;14.10;2.85;;;;;;;;;;4977040;28;20034;-74
2022/01/09 10:16:10;;;;;;;30.88;3.80;;;;;;;;;;4976060;28;20031;-73
2022/01/09 10:18:53;;;;;;;15.65;3.17;;;;;;;;;;4974097;28;20039;-74
2022/01/09 10:21:22;;;;;;;17.92;2.90;;;;;;;;;;4973763;28;20405;-75
2022/01/09 10:24:06;;;;;;;14.77;2.80;;;;;;;;;;4966380;28;20049;-74
2022/01/09 10:26:34;;;;;;;21.48;3.72;;;;;;;;;;4966325;28;20046;-74
2022/01/09 10:29:00;;;;;;;11.90;2.58;;;;;;;;;;4967630;28;20035;-74
2022/01/09 10:31:26;;;;;;;21.38;3.15;;;;;;;;;;4969665;28;20119;-74
2022/01/09 10:34:10;;;;;;;18.60;3.35;;;;;;;;;;4968118;28;20480;-74
2022/01/09 10:36:41;;;;;;;11.15;2.47;;;;;;;;;;4967775;28;20086;-74
2022/01/09 10:39:11;;;;;;;13.20;2.28;;;;;;;;;;4975421;28;20042;-74
2022/01/09 10:41:58;;;;;;;12.63;3.03;;;;;;;;;;4967659;28;20039;-74
2022/01/09 10:44:31;;;;;;;16.73;2.67;;;;;;;;;;4965390;28;20152;-74
2022/01/09 10:47:09;;;;;;;13.90;2.83;;;;;;;;;;4966744;28;20066;-74
2022/01/09 10:49:40;;;;;;;12.40;3.03;;;;;;;;;;4966955;28;20752;-74
2022/01/09 10:52:26;;;;;;;12.65;3.50;;;;;;;;;;4969060;28;20513;-73
2022/01/09 10:54:54;;;;;;;15.90;3.47;;;;;;;;;;4973148;28;20038;-74
2022/01/09 10:57:26;;;;;;;21.65;3.33;;;;;;;;;;4966560;28;20705;-74
2022/01/09 10:59:52;;;;;;;8.70;1.88;;;;;;;;;;4966695;28;20055;-74
2022/01/09 11:02:19;;;;;;;9.75;2.70;;;;;;;;;;4975262;28;20408;-74
2022/01/09 11:04:46;;;;;;;8.43;2.30;;;;;;;;;;4976393;28;20046;-74
2022/01/09 11:07:12;;;;;;;13.98;2.78;;;;;;;;;;4994472;28;20030;-74
2022/01/09 11:09:40;;;;;;;14.95;2.88;;;;;;;;;;4967716;28;20110;-74
2022/01/09 11:12:07;;;;;;;21.92;4.43;;;;;;;;;;4969564;28;20062;-74
2022/01/09 11:14:36;;;;;;;13.82;2.42;;;;;;;;;;4966936;28;20043;-74
2022/01/09 11:17:04;;;;;;;17.65;3.17;;;;;;;;;;4979784;28;20046;-76
2022/01/09 11:19:30;;;;;;;12.30;2.70;;;;;;;;;;5002060;28;20097;-75
2022/01/09 11:21:59;;;;;;;12.35;2.55;;;;;;;;;;5045026;28;20031;-74
2022/01/09 11:24:31;;;;;;;15.63;3.33;;;;;;;;;;4964992;28;20054;-74
2022/01/09 11:27:07;;;;;;;16.70;2.65;;;;;;;;;;4965194;28;20035;-74
2022/01/09 11:29:49;;;;;;;9.40;2.78;;;;;;;;;;4984218;28;20045;-76
2022/01/09 11:32:42;;;;;;;15.35;3.22;;;;;;;;;;4986127;28;20062;-73
2022/01/09 11:35:45;;;;;;;18.58;2.95;;;;;;;;;;4985433;28;20031;-76
2022/01/09 11:38:19;;;;;;;21.23;2.63;;;;;;;;;;5006955;28;20046;-76
2022/01/09 11:40:44;;;;;;;10.95;2.75;;;;;;;;;;4975418;28;20157;-77
2022/01/09 11:43:15;;;;;;;16.65;3.05;;;;;;;;;;4973064;28;20102;-76
2022/01/09 11:45:47;;;;;;;11.68;2.70;;;;;;;;;;4982778;28;20150;-77
2022/01/09 11:48:14;;;;;;;10.60;2.58;;;;;;;;;;4966449;28;20046;-76
2022/01/09 11:51:04;;;;;;;11.02;2.90;;;;;;;;;;4970600;28;20558;-76
2022/01/09 11:54:02;;;;;;;23.27;3.72;;;;;;;;;;4971819;28;20039;-77
2022/01/09 11:56:57;;;;;;;12.32;2.80;;;;;;;;;;4978312;28;20046;-76
2022/01/09 11:59:32;;;;;;;10.02;2.65;;;;;;;;;;4967677;28;20085;-76
2022/01/09 12:02:03;;;;;;;13.25;2.70;;;;;;;;;;4981679;28;20077;-77
2022/01/09 12:04:31;;;;;;;16.90;3.17;;;;;;;;;;4972736;28;20038;-77
2022/01/09 12:06:57;;;;;;;15.50;2.60;;;;;;;;;;4965705;28;20419;-75
2022/01/09 12:09:37;;;;;;;14.23;2.28;;;;;;;;;;4972387;28;20034;-77
2022/01/09 12:12:02;;;;;;;10.85;1.88;;;;;;;;;;4971131;28;20082;-76
2022/01/09 12:14:55;;;;;;;14.70;2.90;;;;;;;;;;4975225;28;20073;-76
2022/01/09 12:17:21;;;;;;;13.88;3.20;;;;;;;;;;4971231;28;20046;-76
2022/01/09 12:20:05;;;;;;;14.20;2.58;;;;;;;;;;4976987;28;20058;-76
2022/01/09 12:22:43;;;;;;;9.63;2.53;;;;;;;;;;4973522;28;20047;-76
2022/01/09 12:27:56;;;;;;;11.98;3.78;;;;;;;;;;4978857;28;20120;-76
2022/01/09 12:30:35;;;;;;;13.05;3.42;;;;;;;;;;4975318;28;20115;-76
2022/01/09 12:33:05;;;;;;;12.93;4.50;;;;;;;;;;4972840;28;20079;-75
2022/01/09 12:35:31;;;;;;;14.00;2.97;;;;;;;;;;4985301;28;20034;-76
2022/01/09 12:37:58;;;;;;;13.40;3.60;;;;;;;;;;4975281;28;20042;-76
2022/01/09 12:40:25;;;;;;;21.38;3.28;;;;;;;;;;4973402;28;20231;-76
2022/01/09 12:42:53;;;;;;;11.10;2.88;;;;;;;;;;4979225;28;20114;-77
2022/01/09 12:45:32;;;;;;;17.98;3.17;;;;;;;;;;4978610;28;20042;-76
2022/01/09 12:48:01;;;;;;;15.05;3.10;;;;;;;;;;4977234;28;20035;-77
2022/01/09 12:50:29;;;;;;;13.50;2.85;;;;;;;;;;4963397;28;20047;-77
2022/01/09 12:53:18;;;;;;;20.60;5.28;;;;;;;;;;4971049;28;20039;-76
2022/01/09 12:56:04;;;;;;;12.50;4.43;;;;;;;;;;4971049;28;20042;-77
2022/01/09 12:58:32;;;;;;;17.27;4.38;;;;;;;;;;5070637;28;20046;-77
2022/01/09 13:00:59;;;;;;;8.05;3.10;;;;;;;;;;4979022;28;20065;-77
2022/01/09 13:03:26;;;;;;;17.13;3.65;;;;;;;;;;4977703;28;20039;-75
2022/01/09 13:06:07;;;;;;;14.77;3.65;;;;;;;;;;4978184;28;20050;-77
2022/01/09 13:08:40;;;;;;;11.70;3.13;;;;;;;;;;4985682;28;20180;-77
2022/01/09 13:11:08;;;;;;;11.82;3.55;;;;;;;;;;4998262;28;20032;-77
2022/01/09 13:13:35;;;;;;;14.90;3.08;;;;;;;;;;4979062;28;20046;-77
2022/01/09 13:16:15;;;;;;;12.55;3.30;;;;;;;;;;4975907;28;20114;-77
2022/01/09 13:18:49;;;;;;;13.88;3.25;;;;;;;;;;4981154;28;20567;-76
2022/01/09 13:21:25;;;;;;;12.23;2.20;;;;;;;;;;4980723;28;20054;-77
2022/01/09 13:23:58;;;;;;;14.73;3.33;;;;;;;;;;4975740;28;20099;-76
2022/01/09 13:26:25;;;;;;;12.13;3.03;;;;;;;;;;4975352;28;20050;-76
2022/01/09 13:28:52;;;;;;;8.90;3.38;;;;;;;;;;4982961;28;20107;-77
2022/01/09 13:31:18;;;;;;;13.32;3.05;;;;;;;;;;4970329;28;20041;-76
2022/01/09 13:33:58;;;;;;;6.65;2.00;;;;;;;;;;4976241;28;20034;-77
2022/01/09 13:36:28;;;;;;;12.10;2.47;;;;;;;;;;4975813;28;20440;-77
2022/01/09 13:38:54;;;;;;;10.98;2.30;;;;;;;;;;5012428;28;20040;-77
2022/01/09 13:41:20;;;;;;;9.10;1.90;;;;;;;;;;5002509;28;20038;-77
2022/01/09 13:43:48;;;;;;;12.73;2.13;;;;;;;;;;4971416;28;20034;-77
2022/01/09 13:46:13;;;;;;;6.95;2.22;;;;;;;;;;4978991;28;20026;-76
2022/01/09 13:48:50;;;;;;;9.63;2.15;;;;;;;;;;4975486;28;20093;-76
2022/01/09 13:51:16;;;;;;;9.50;2.40;;;;;;;;;;5027824;28;20046;-77
2022/01/09 13:54:11;;;;;;;7.80;2.25;;;;;;;;;;4981490;28;20084;-78
2022/01/09 13:56:36;;;;;;;12.65;2.70;;;;;;;;;;4981473;28;20052;-77
2022/01/09 13:59:02;;;;;;;11.52;2.28;;;;;;;;;;4977244;28;20035;-77
2022/01/09 14:01:48;;;;;;;10.85;2.22;;;;;;;;;;4976210;28;20293;-77
2022/01/09 14:04:19;;;;;;;9.60;2.38;;;;;;;;;;4973746;28;20045;-76
2022/01/09 14:07:02;;;;;;;10.07;2.75;;;;;;;;;;4976175;28;20430;-77
2022/01/09 14:09:34;;;;;;;9.63;2.33;;;;;;;;;;4988949;28;20034;-77
2022/01/09 14:12:14;;;;;;;7.10;1.85;;;;;;;;;;4967793;28;20035;-77
2022/01/09 14:14:42;;;;;;;9.75;2.40;;;;;;;;;;4988567;28;20028;-78
2022/01/09 14:17:34;;;;;;;8.35;2.05;;;;;;;;;;4983279;28;20039;-78
2022/01/09 14:20:13;;;;;;;10.55;2.40;;;;;;;;;;4978799;28;20038;-77
2022/01/09 14:22:46;;;;;;;12.48;2.33;;;;;;;;;;4976083;28;20104;-78
2022/01/09 14:25:17;;;;;;;;;;;;;;;;;;4967247;28;20038;-77
2022/01/09 14:27:46;;;;;;;11.43;2.88;;;;;;;;;;4969204;28;20512;-78
2022/01/09 14:30:29;;;;;;;11.73;2.90;;;;;;;;;;4982435;28;20380;-78
2022/01/09 14:33:19;;;;;;;11.18;2.53;;;;;;;;;;4971079;28;20057;-78
2022/01/09 14:36:02;;;;;;;11.10;2.78;;;;;;;;;;4981969;28;20577;-78
2022/01/09 14:38:29;;;;;;;;;;;;;;;;;;4975513;28;20137;-78
2022/01/09 14:40:59;;;;;;;10.43;2.63;;;;;;;;;;4973728;28;19941;-77
2022/01/09 14:43:26;;;;;;;14.95;3.10;;;;;;;;;;4981430;28;20045;-77
2022/01/09 14:45:52;;;;;;;7.25;2.42;;;;;;;;;;5059269;28;20047;-78